Craigencallie, United Kingdom
Current Conditions -  °F | °C
As of 7:50 AM on Tuesday 21 Oct 2014 (Local Time) from EGPK Reporting Station
Light Rain Light Rain  
Wind Chill: 39°   Ceiling: Unl
Heat Index: 48°   Visibility: 5mi
Dew Point: 41°   Wind: 35mph
Humidity: 76%   Direction: 280°W
Pressure: 29.29"   Gusts: 46mph
Location:  55.07°N, 4.34°W
Report Text: EGPK 210650Z 28030G40KT 8000 -RA FEW015 SCT028 09/05 Q0992
Loading
Personal Weather Stations






























Interactive Weather Map
Tropical Storm Tracking
New forecast layout! Learn more

10-Day Weather Forecast

Advertisements
Track Severe Weather on mobile